createdAt,value
2022-07-31T00:02:11.706Z,2.53
2022-07-31T00:04:41.189Z,2.95
2022-07-31T00:07:10.783Z,2.92
2022-07-31T00:09:53.154Z,2.55
2022-07-31T00:12:25.230Z,2.47
2022-07-31T00:14:54.836Z,2.20
2022-07-31T00:17:24.308Z,2.58
2022-07-31T00:19:53.908Z,4.85
2022-07-31T00:22:24.486Z,2.50
2022-07-31T00:24:54.068Z,2.60
2022-07-31T00:27:25.307Z,2.85
2022-07-31T00:29:54.889Z,2.90
2022-07-31T00:32:24.386Z,2.97
2022-07-31T00:34:53.997Z,2.90
2022-07-31T00:37:23.501Z,2.90
2022-07-31T00:39:54.778Z,3.38
2022-07-31T00:42:27.039Z,2.85
2022-07-31T00:44:56.720Z,2.90
2022-07-31T00:47:29.075Z,2.67
2022-07-31T00:49:59.580Z,2.85
2022-07-31T00:52:29.010Z,3.20
2022-07-31T00:54:59.129Z,3.03
2022-07-31T00:57:30.361Z,2.80
2022-07-31T00:59:59.918Z,3.10
2022-07-31T01:02:29.978Z,3.10
2022-07-31T01:04:59.550Z,2.97
2022-07-31T01:07:28.992Z,2.60
2022-07-31T01:09:58.823Z,2.42
2022-07-31T01:12:37.814Z,2.60
2022-07-31T01:15:14.388Z,2.95
2022-07-31T01:17:45.736Z,2.83
2022-07-31T01:20:16.366Z,2.75
2022-07-31T01:23:17.375Z,2.50
2022-07-31T01:26:19.482Z,2.80
2022-07-31T01:29:15.775Z,2.83
2022-07-31T01:31:49.780Z,2.78
2022-07-31T01:34:27.426Z,2.60
2022-07-31T01:37:05.352Z,2.80
2022-07-31T01:39:37.450Z,2.40
2022-07-31T01:42:09.940Z,2.50
2022-07-31T01:44:45.610Z,2.38
2022-07-31T01:47:19.015Z,2.67
2022-07-31T01:49:50.492Z,2.67
2022-07-31T01:52:23.707Z,2.40
2022-07-31T01:54:54.903Z,2.67
2022-07-31T01:57:26.545Z,2.30
2022-07-31T02:00:03.513Z,3.00
2022-07-31T02:02:51.351Z,2.53
2022-07-31T02:05:25.632Z,2.40
2022-07-31T02:07:56.535Z,2.60
2022-07-31T02:10:30.106Z,2.70
2022-07-31T02:13:00.575Z,2.67
2022-07-31T02:15:33.866Z,2.58
2022-07-31T02:18:04.291Z,2.60
2022-07-31T02:20:38.054Z,2.53
2022-07-31T02:23:08.107Z,2.55
2022-07-31T02:25:38.757Z,2.50
2022-07-31T02:28:12.557Z,2.42
2022-07-31T02:30:46.091Z,2.95
2022-07-31T02:33:24.042Z,3.40
2022-07-31T02:35:56.438Z,4.10
2022-07-31T02:38:28.639Z,3.60
2022-07-31T02:41:04.159Z,3.20
2022-07-31T02:43:35.313Z,2.72
2022-07-31T02:46:21.788Z,2.90
2022-07-31T02:48:54.369Z,2.70
2022-07-31T02:51:26.159Z,2.50
2022-07-31T02:53:56.446Z,2.70
2022-07-31T02:56:30.030Z,2.78
2022-07-31T02:58:59.640Z,2.58
2022-07-31T03:01:38.940Z,2.88
2022-07-31T03:04:09.250Z,2.90
2022-07-31T03:06:38.849Z,2.85
2022-07-31T03:09:08.409Z,3.33
2022-07-31T03:11:38.637Z,3.10
2022-07-31T03:14:10.786Z,3.13
2022-07-31T03:16:43.953Z,3.50
2022-07-31T03:19:15.251Z,3.38
2022-07-31T03:21:45.341Z,2.88
2022-07-31T03:24:15.345Z,3.00
2022-07-31T03:26:45.357Z,2.80
2022-07-31T03:29:42.603Z,3.20
2022-07-31T03:32:07.115Z,2.92
2022-07-31T03:34:37.907Z,3.15
2022-07-31T03:37:09.037Z,3.20
2022-07-31T03:39:39.009Z,2.90
2022-07-31T03:42:18.866Z,3.10
2022-07-31T03:44:51.053Z,3.03
2022-07-31T03:47:22.236Z,2.72
2022-07-31T03:49:52.119Z,2.83
2022-07-31T03:52:22.317Z,2.63
2022-07-31T03:54:52.105Z,2.88
2022-07-31T03:57:26.986Z,3.03
2022-07-31T03:59:59.361Z,3.20
2022-07-31T04:02:32.600Z,2.65
2022-07-31T04:05:24.322Z,3.13
2022-07-31T04:07:53.987Z,2.97
2022-07-31T04:10:24.600Z,2.70
2022-07-31T04:12:54.327Z,2.65
2022-07-31T04:15:23.877Z,3.35
2022-07-31T04:17:56.015Z,3.05
2022-07-31T04:20:32.087Z,3.67
2022-07-31T04:23:01.698Z,4.28
2022-07-31T04:26:00.961Z,4.55
2022-07-31T04:28:56.610Z,4.03
2022-07-31T04:31:26.851Z,4.60
2022-07-31T04:33:58.717Z,4.35
2022-07-31T04:36:30.330Z,4.15
2022-07-31T04:39:03.073Z,4.20
2022-07-31T04:41:33.193Z,3.95
2022-07-31T04:44:03.547Z,4.00
2022-07-31T04:46:47.382Z,3.78
2022-07-31T04:49:19.001Z,3.55
2022-07-31T04:51:49.062Z,3.70
2022-07-31T04:54:18.671Z,3.97
2022-07-31T04:56:48.901Z,4.50
2022-07-31T04:59:20.965Z,4.40
2022-07-31T05:01:51.136Z,5.20
2022-07-31T05:04:26.871Z,6.13
2022-07-31T05:06:56.529Z,6.50
2022-07-31T05:09:30.536Z,7.90
2022-07-31T05:12:03.455Z,7.78
2022-07-31T05:14:33.586Z,7.82
2022-07-31T05:17:03.087Z,8.75
2022-07-31T05:19:52.041Z,9.90
2022-07-31T05:22:46.837Z,8.73
2022-07-31T05:25:39.068Z,7.93
2022-07-31T05:28:09.914Z,9.00
2022-07-31T05:30:42.041Z,8.05
2022-07-31T05:33:11.966Z,8.00
2022-07-31T05:35:45.198Z,7.20
2022-07-31T05:38:14.782Z,7.80
2022-07-31T05:41:14.005Z,6.57
2022-07-31T05:44:19.203Z,7.05
2022-07-31T05:49:20.125Z,7.00
2022-07-31T05:51:55.748Z,5.35
2022-07-31T05:54:25.363Z,5.72
2022-07-31T05:57:13.200Z,5.28
2022-07-31T06:00:03.996Z,4.47
2022-07-31T06:02:41.243Z,4.45
2022-07-31T06:05:34.263Z,4.47
2022-07-31T06:08:05.463Z,3.92
2022-07-31T06:10:43.152Z,3.40
2022-07-31T06:13:13.323Z,3.30
2022-07-31T06:15:49.222Z,3.65
2022-07-31T06:18:20.324Z,3.50
2022-07-31T06:20:50.419Z,3.58
2022-07-31T06:23:27.951Z,3.58
2022-07-31T06:26:17.949Z,3.40
2022-07-31T06:28:49.522Z,3.40
2022-07-31T06:31:21.711Z,3.55
2022-07-31T06:33:53.839Z,3.30
2022-07-31T06:36:27.443Z,3.25
2022-07-31T06:39:02.954Z,3.40
2022-07-31T06:41:52.806Z,3.20
2022-07-31T06:44:33.850Z,3.40
2022-07-31T06:47:23.529Z,3.20
2022-07-31T06:49:57.061Z,3.22
2022-07-31T06:52:31.592Z,3.10
2022-07-31T06:55:03.836Z,2.88
2022-07-31T06:57:33.479Z,2.97
2022-07-31T07:00:07.289Z,3.20
2022-07-31T07:02:50.081Z,2.97
2022-07-31T07:05:21.915Z,2.90
2022-07-31T07:07:55.069Z,2.70
2022-07-31T07:10:26.414Z,3.28
2022-07-31T07:13:01.870Z,3.00
2022-07-31T07:15:38.353Z,2.92
2022-07-31T07:18:08.847Z,3.00
2022-07-31T07:20:44.717Z,2.70
2022-07-31T07:23:14.790Z,2.78
2022-07-31T07:26:00.355Z,2.95
2022-07-31T07:28:31.094Z,2.45
2022-07-31T07:31:05.285Z,2.58
2022-07-31T07:33:40.108Z,2.50
2022-07-31T07:36:22.686Z,2.67
2022-07-31T07:39:20.202Z,2.72
2022-07-31T07:41:51.450Z,2.67
2022-07-31T07:44:21.133Z,2.72
2022-07-31T07:46:50.936Z,2.40
2022-07-31T07:49:22.149Z,2.15
2022-07-31T07:52:03.148Z,2.45
2022-07-31T07:54:43.604Z,2.22
2022-07-31T07:57:19.215Z,2.22
2022-07-31T08:00:18.206Z,2.47
2022-07-31T08:03:46.788Z,2.20
2022-07-31T08:05:47.132Z,2.17
2022-07-31T08:08:16.816Z,2.30
2022-07-31T08:10:49.526Z,2.10
2022-07-31T08:13:28.683Z,2.30
2022-07-31T08:16:24.535Z,2.15
2022-07-31T08:18:58.028Z,2.53
2022-07-31T08:21:28.962Z,2.25
2022-07-31T08:23:58.909Z,2.63
2022-07-31T08:26:48.542Z,2.95
2022-07-31T08:29:27.314Z,2.25
2022-07-31T08:32:07.508Z,2.20
2022-07-31T08:34:55.786Z,2.20
2022-07-31T08:37:52.534Z,2.65
2022-07-31T08:40:15.257Z,2.60
2022-07-31T08:42:47.448Z,2.63
2022-07-31T08:45:19.170Z,2.65
2022-07-31T08:48:01.120Z,2.50
2022-07-31T08:50:36.526Z,2.60
2022-07-31T08:53:10.199Z,2.92
2022-07-31T08:55:55.502Z,2.70
2022-07-31T08:58:28.244Z,3.00
2022-07-31T09:00:59.813Z,2.70
2022-07-31T09:03:29.651Z,2.60
2022-07-31T09:06:02.264Z,2.83
2022-07-31T09:08:35.113Z,2.63
2022-07-31T09:11:08.349Z,2.55
2022-07-31T09:14:06.002Z,2.80
2022-07-31T09:16:50.932Z,2.50
2022-07-31T09:19:52.328Z,2.40
2022-07-31T09:22:29.081Z,2.60
2022-07-31T09:25:16.422Z,2.50
2022-07-31T09:27:46.479Z,2.67
2022-07-31T09:30:17.228Z,2.50
2022-07-31T09:33:20.285Z,2.20
2022-07-31T09:36:16.105Z,2.40
2022-07-31T09:38:51.773Z,2.35
2022-07-31T09:41:58.155Z,2.30
2022-07-31T09:44:51.166Z,2.20
2022-07-31T09:47:27.165Z,1.98
2022-07-31T09:50:01.029Z,2.35
2022-07-31T09:52:33.086Z,2.17
2022-07-31T09:55:16.103Z,3.13
2022-07-31T09:57:55.803Z,2.38
2022-07-31T10:00:27.239Z,2.20
2022-07-31T10:02:59.290Z,2.20
2022-07-31T10:05:32.216Z,2.53
2022-07-31T10:08:04.570Z,2.50
2022-07-31T10:10:48.060Z,2.38
2022-07-31T10:13:32.600Z,2.00
2022-07-31T10:16:03.530Z,2.22
2022-07-31T10:19:01.599Z,2.30
2022-07-31T10:22:06.599Z,2.20
2022-07-31T10:24:48.408Z,2.25
2022-07-31T10:27:19.450Z,2.05
2022-07-31T10:29:56.364Z,2.00
2022-07-31T10:32:27.610Z,2.33
2022-07-31T10:35:29.770Z,2.20
2022-07-31T10:38:35.389Z,1.92
2022-07-31T10:41:32.653Z,1.85
2022-07-31T10:44:09.974Z,1.70
2022-07-31T10:47:15.015Z,1.85
2022-07-31T10:50:22.891Z,2.05
2022-07-31T10:53:12.077Z,2.42
2022-07-31T10:56:11.107Z,2.20
2022-07-31T10:59:14.175Z,2.10
2022-07-31T11:01:53.619Z,1.90
2022-07-31T11:04:41.577Z,2.25
2022-07-31T11:07:33.543Z,2.05
2022-07-31T11:10:17.931Z,2.15
2022-07-31T11:13:04.766Z,2.30
2022-07-31T11:15:54.110Z,2.38
2022-07-31T11:18:59.599Z,2.10
2022-07-31T11:21:39.567Z,2.17
2022-07-31T11:24:17.642Z,2.20
2022-07-31T11:26:54.975Z,2.25
2022-07-31T11:29:59.104Z,2.03
2022-07-31T11:32:26.168Z,2.17
2022-07-31T11:34:57.540Z,2.60
2022-07-31T11:37:46.646Z,2.05
2022-07-31T11:40:22.324Z,2.30
2022-07-31T11:43:10.356Z,2.33
2022-07-31T11:45:50.210Z,2.15
2022-07-31T11:48:20.963Z,2.00
2022-07-31T11:50:51.865Z,2.08
2022-07-31T11:53:22.359Z,2.30
2022-07-31T11:55:53.498Z,2.20
2022-07-31T11:58:24.798Z,2.10
2022-07-31T12:00:57.902Z,2.30
2022-07-31T12:03:31.589Z,2.15
2022-07-31T12:06:01.633Z,2.20
2022-07-31T12:08:32.179Z,2.28
2022-07-31T12:11:03.119Z,2.55
2022-07-31T12:13:33.970Z,2.47
2022-07-31T12:16:06.928Z,2.50
2022-07-31T12:18:49.281Z,2.30
2022-07-31T12:21:19.762Z,2.42
2022-07-31T12:23:51.254Z,2.22
2022-07-31T12:26:25.281Z,2.00
2022-07-31T12:29:02.543Z,2.08
2022-07-31T12:31:46.543Z,2.00
2022-07-31T12:34:27.019Z,2.10
2022-07-31T12:37:00.988Z,2.05
2022-07-31T12:39:47.526Z,2.10
2022-07-31T12:42:30.943Z,2.10
2022-07-31T12:45:18.555Z,2.30
2022-07-31T12:47:56.101Z,2.00
2022-07-31T12:50:27.782Z,2.15
2022-07-31T12:53:02.008Z,1.90
2022-07-31T12:55:34.056Z,1.80
2022-07-31T12:58:03.644Z,1.80
2022-07-31T13:00:38.123Z,1.70
2022-07-31T13:03:11.542Z,1.77
2022-07-31T13:05:41.270Z,1.70
2022-07-31T13:08:10.989Z,1.73
2022-07-31T13:10:40.748Z,1.60
2022-07-31T13:13:10.439Z,1.80
2022-07-31T13:15:41.050Z,1.70
2022-07-31T13:18:12.246Z,1.83
2022-07-31T13:20:44.122Z,1.80
2022-07-31T13:23:14.012Z,1.80
2022-07-31T13:25:43.680Z,1.48
2022-07-31T13:28:13.303Z,1.70
2022-07-31T13:30:43.283Z,1.67
2022-07-31T13:33:14.478Z,1.60
2022-07-31T13:35:44.148Z,1.90
2022-07-31T13:38:15.149Z,1.77
2022-07-31T13:41:02.043Z,1.55
2022-07-31T13:43:31.810Z,1.83
2022-07-31T13:46:01.370Z,1.60
2022-07-31T13:48:35.481Z,1.70
2022-07-31T13:51:05.226Z,1.80
2022-07-31T13:53:34.938Z,1.70
2022-07-31T13:56:05.228Z,1.77
2022-07-31T13:58:35.009Z,1.83
2022-07-31T14:01:05.180Z,1.80
2022-07-31T14:03:36.480Z,1.75
2022-07-31T14:06:06.283Z,1.63
2022-07-31T14:08:49.776Z,1.70
2022-07-31T14:11:20.138Z,2.00
2022-07-31T14:13:49.707Z,1.75
2022-07-31T14:16:19.357Z,1.60
2022-07-31T14:18:50.521Z,1.70
2022-07-31T14:21:20.171Z,1.88
2022-07-31T14:23:49.707Z,1.67
2022-07-31T14:26:19.463Z,1.98
2022-07-31T14:28:49.894Z,1.90
2022-07-31T14:31:19.695Z,1.80
2022-07-31T14:33:50.759Z,1.73
2022-07-31T14:36:20.364Z,1.77
2022-07-31T14:38:49.909Z,1.88
2022-07-31T14:41:19.625Z,1.80
2022-07-31T14:43:50.615Z,1.80
2022-07-31T14:46:20.241Z,2.05
2022-07-31T14:48:51.375Z,1.52
2022-07-31T14:51:21.440Z,1.67
2022-07-31T14:53:52.762Z,1.63
2022-07-31T14:56:45.067Z,1.50
2022-07-31T14:59:12.154Z,1.80
2022-07-31T15:01:42.002Z,1.63
2022-07-31T15:04:13.362Z,1.55
2022-07-31T15:06:59.030Z,1.60
2022-07-31T15:09:32.791Z,1.70
2022-07-31T15:12:02.288Z,1.92
2022-07-31T15:14:32.314Z,1.40
2022-07-31T15:17:02.091Z,1.90
2022-07-31T15:19:33.240Z,1.60
2022-07-31T15:22:10.057Z,1.90
2022-07-31T15:24:49.114Z,1.50
2022-07-31T15:27:21.238Z,1.65
2022-07-31T15:30:02.023Z,2.00
2022-07-31T15:32:36.235Z,1.70
2022-07-31T15:35:09.030Z,1.63
2022-07-31T15:37:39.730Z,1.75
2022-07-31T15:40:11.642Z,1.90
2022-07-31T15:42:43.447Z,1.80
2022-07-31T15:45:14.200Z,1.65
2022-07-31T15:47:45.053Z,1.73
2022-07-31T15:50:19.116Z,1.70
2022-07-31T15:52:49.246Z,1.83
2022-07-31T15:55:19.163Z,1.70
2022-07-31T15:57:48.742Z,1.73
2022-07-31T16:00:19.122Z,2.10
2022-07-31T16:02:48.769Z,1.80
2022-07-31T16:05:36.291Z,1.95
2022-07-31T16:08:32.330Z,1.95
2022-07-31T16:10:57.739Z,2.08
2022-07-31T16:13:27.590Z,2.08
2022-07-31T16:15:57.319Z,2.20
2022-07-31T16:18:26.859Z,2.30
2022-07-31T16:20:58.511Z,2.20
2022-07-31T16:23:28.465Z,1.90
2022-07-31T16:25:58.101Z,1.65
2022-07-31T16:28:28.068Z,1.95
2022-07-31T16:30:57.679Z,2.00
2022-07-31T16:33:27.205Z,1.95
2022-07-31T16:35:58.856Z,2.10
2022-07-31T16:38:28.491Z,2.00
2022-07-31T16:40:58.002Z,1.80
2022-07-31T16:43:47.992Z,2.17
2022-07-31T16:46:17.422Z,1.92
2022-07-31T16:48:47.413Z,2.10
2022-07-31T16:51:18.572Z,1.75
2022-07-31T16:54:14.456Z,1.90
2022-07-31T16:56:38.330Z,2.30
2022-07-31T16:59:08.048Z,2.25
2022-07-31T17:01:54.115Z,2.20
2022-07-31T17:04:27.403Z,2.10
2022-07-31T17:06:58.552Z,2.20
2022-07-31T17:09:28.987Z,2.50
2022-07-31T17:11:58.920Z,2.15
2022-07-31T17:14:29.465Z,2.90
2022-07-31T17:16:59.505Z,1.83
2022-07-31T17:19:42.725Z,2.50
2022-07-31T17:22:18.674Z,2.60
2022-07-31T17:24:51.455Z,4.20
2022-07-31T17:27:22.916Z,14.05
2022-07-31T17:29:52.570Z,15.57
2022-07-31T17:32:22.125Z,2.55
2022-07-31T17:34:51.777Z,4.88
2022-07-31T17:37:24.261Z,30.00
2022-07-31T17:39:57.851Z,15.40
2022-07-31T17:42:28.664Z,3.88
2022-07-31T17:44:59.271Z,3.42
2022-07-31T17:47:28.978Z,10.98
2022-07-31T17:49:58.821Z,2.65
2022-07-31T17:52:31.444Z,4.07
2022-07-31T17:55:01.994Z,2.15
2022-07-31T17:57:32.998Z,2.53
2022-07-31T18:00:02.991Z,2.58
2022-07-31T18:02:34.263Z,2.53
2022-07-31T18:05:04.210Z,4.18
2022-07-31T18:07:36.001Z,3.38
2022-07-31T18:10:09.471Z,3.88
2022-07-31T18:12:56.782Z,3.00
2022-07-31T18:15:35.877Z,3.20
2022-07-31T18:18:05.994Z,3.00
2022-07-31T18:20:36.063Z,2.22
2022-07-31T18:23:10.158Z,2.40
2022-07-31T18:25:40.131Z,2.63
2022-07-31T18:28:09.832Z,2.45
2022-07-31T18:30:41.512Z,2.70
2022-07-31T18:33:13.100Z,3.70
2022-07-31T18:35:43.090Z,2.60
2022-07-31T18:38:14.543Z,2.80
2022-07-31T18:40:45.059Z,3.03
2022-07-31T18:43:14.930Z,3.70
2022-07-31T18:45:44.823Z,2.40
2022-07-31T18:48:14.483Z,2.80
2022-07-31T18:51:01.573Z,2.50
2022-07-31T18:53:35.523Z,2.90
2022-07-31T18:56:05.510Z,2.60
2022-07-31T18:58:35.011Z,2.67
2022-07-31T19:01:04.942Z,2.97
2022-07-31T19:03:34.538Z,2.40
2022-07-31T19:06:04.785Z,2.95
2022-07-31T19:08:35.898Z,11.32
2022-07-31T19:11:05.690Z,6.65
2022-07-31T19:13:35.436Z,3.25
2022-07-31T19:16:05.308Z,3.60
2022-07-31T19:18:36.376Z,15.38
2022-07-31T19:21:18.035Z,7.85
2022-07-31T19:23:57.772Z,6.35
2022-07-31T19:26:27.636Z,6.72
2022-07-31T19:28:57.328Z,6.03
2022-07-31T19:31:27.093Z,4.55
2022-07-31T19:33:56.818Z,9.30
2022-07-31T19:36:26.525Z,5.10
2022-07-31T19:38:57.650Z,3.40
2022-07-31T19:41:27.380Z,3.35
2022-07-31T19:43:58.529Z,2.95
2022-07-31T19:46:28.289Z,11.52
2022-07-31T19:49:00.519Z,9.65
2022-07-31T19:51:31.689Z,4.57
2022-07-31T19:54:02.961Z,5.45
2022-07-31T19:56:33.825Z,6.15
2022-07-31T19:59:04.357Z,4.07
2022-07-31T20:01:34.117Z,3.50
2022-07-31T20:04:03.798Z,3.30
2022-07-31T20:06:33.597Z,3.03
2022-07-31T20:09:05.990Z,3.40
2022-07-31T20:11:35.626Z,2.95
2022-07-31T20:14:05.925Z,3.83
2022-07-31T20:16:35.827Z,3.08
2022-07-31T20:19:05.477Z,3.35
2022-07-31T20:21:35.507Z,3.80
2022-07-31T20:24:08.605Z,3.25
2022-07-31T20:26:38.666Z,3.72
2022-07-31T20:29:08.248Z,2.85
2022-07-31T20:31:37.966Z,3.25
2022-07-31T20:34:07.617Z,3.08
2022-07-31T20:36:37.324Z,2.70
2022-07-31T20:39:08.710Z,3.25
2022-07-31T20:41:38.756Z,3.17
2022-07-31T20:44:08.666Z,3.53
2022-07-31T20:46:38.407Z,2.97
2022-07-31T20:49:07.985Z,3.00
2022-07-31T20:51:52.586Z,3.30
2022-07-31T20:54:34.133Z,2.92
2022-07-31T20:57:04.658Z,2.78
2022-07-31T20:59:34.127Z,2.97
2022-07-31T21:02:04.216Z,3.00
2022-07-31T21:04:34.289Z,3.17
2022-07-31T21:07:03.880Z,2.70
2022-07-31T21:09:35.150Z,2.80
2022-07-31T21:12:05.169Z,3.25
2022-07-31T21:14:34.990Z,3.28
2022-07-31T21:17:04.639Z,3.22
2022-07-31T21:19:34.340Z,3.15
2022-07-31T21:22:04.107Z,2.90
2022-07-31T21:24:36.313Z,3.15
2022-07-31T21:27:10.558Z,3.05
2022-07-31T21:29:40.846Z,3.10
2022-07-31T21:32:11.608Z,3.33
2022-07-31T21:34:41.891Z,3.40
2022-07-31T21:37:16.360Z,3.50
2022-07-31T21:39:48.169Z,3.90
2022-07-31T21:42:18.448Z,3.15
2022-07-31T21:44:48.673Z,3.72
2022-07-31T21:47:19.788Z,3.35
2022-07-31T21:49:54.115Z,3.17
2022-07-31T21:52:30.385Z,3.50
2022-07-31T21:55:04.282Z,3.13
2022-07-31T21:57:58.744Z,3.70
2022-07-31T22:00:26.336Z,3.53
2022-07-31T22:02:58.836Z,3.30
2022-07-31T22:05:56.881Z,3.20
2022-07-31T22:08:26.551Z,3.50
2022-07-31T22:10:57.589Z,3.17
2022-07-31T22:13:27.244Z,3.25
2022-07-31T22:16:00.028Z,3.55
2022-07-31T22:18:34.926Z,3.67
2022-07-31T22:21:06.983Z,4.30
2022-07-31T22:23:37.351Z,3.45
2022-07-31T22:26:08.831Z,3.72
2022-07-31T22:28:39.394Z,3.80
2022-07-31T22:31:10.717Z,3.50
2022-07-31T22:33:40.701Z,4.00
2022-07-31T22:36:11.027Z,4.00
2022-07-31T22:38:41.318Z,3.65
2022-07-31T22:41:13.872Z,3.47
2022-07-31T22:44:12.426Z,3.67
2022-07-31T22:46:34.437Z,4.07
2022-07-31T22:49:07.359Z,3.95
2022-07-31T22:51:38.687Z,3.83
2022-07-31T22:54:08.841Z,3.60
2022-07-31T22:56:39.835Z,4.00
2022-07-31T22:59:09.519Z,3.80
2022-07-31T23:01:39.009Z,3.78
2022-07-31T23:04:08.609Z,3.70
2022-07-31T23:06:38.237Z,4.07
2022-07-31T23:09:07.849Z,4.00
2022-07-31T23:11:38.806Z,4.05
2022-07-31T23:14:08.650Z,4.10
2022-07-31T23:16:38.157Z,4.22
2022-07-31T23:19:08.084Z,4.25
2022-07-31T23:21:37.757Z,3.78
2022-07-31T23:24:07.548Z,3.83
2022-07-31T23:26:37.299Z,4.05
2022-07-31T23:29:09.214Z,4.53
2022-07-31T23:31:39.412Z,4.28
2022-07-31T23:34:09.989Z,4.32
2022-07-31T23:36:39.689Z,4.80
2022-07-31T23:39:09.359Z,4.55
2022-07-31T23:41:55.922Z,4.47
2022-07-31T23:44:27.629Z,4.97
2022-07-31T23:46:58.069Z,4.50
2022-07-31T23:49:27.667Z,4.20
2022-07-31T23:51:57.959Z,4.13
2022-07-31T23:54:27.489Z,4.30
2022-07-31T23:56:57.089Z,4.57
2022-07-31T23:59:28.126Z,4.80
